Time;durP1;ratioP1;P1;durP2;ratioP2;P2;SDS_P1;SDS_P2;PMS_P1;PMS_P2;Temp;Humidity;BMP_temperature;BMP_pressure;BME280_temperature;BME280_humidity;BME280_pressure;Samples;Min_cycle;Max_cycle;Signal;HPM_P1;HPM_P2
2023/05/30 00:02:17;;;;;;;10.20;5.73;;;;;;;;;;5054880;28;20496;-73
2023/05/30 00:04:44;;;;;;;8.40;5.93;;;;;;;;;;5054995;28;20491;-73
2023/05/30 00:07:12;;;;;;;6.73;5.07;;;;;;;;;;5054681;28;20463;-73
2023/05/30 00:09:39;;;;;;;11.00;5.50;;;;;;;;;;5054810;28;20472;-73
2023/05/30 00:12:07;;;;;;;9.30;5.93;;;;;;;;;;5054847;28;20452;-73
2023/05/30 00:14:36;;;;;;;9.07;5.70;;;;;;;;;;5054916;28;20460;-73
2023/05/30 00:17:07;;;;;;;5.93;5.20;;;;;;;;;;5054932;28;20461;-73
2023/05/30 00:19:35;;;;;;;10.47;6.03;;;;;;;;;;5054572;28;21054;-73
2023/05/30 00:22:02;;;;;;;8.07;5.43;;;;;;;;;;5054683;28;21084;-73
2023/05/30 00:24:31;;;;;;;10.90;7.07;;;;;;;;;;5054414;28;20449;-73
2023/05/30 00:26:58;;;;;;;12.53;6.20;;;;;;;;;;5054613;28;20873;-73
2023/05/30 00:29:25;;;;;;;11.73;6.80;;;;;;;;;;5054161;28;21002;-73
2023/05/30 00:31:53;;;;;;;10.63;6.33;;;;;;;;;;5054472;28;20488;-73
2023/05/30 00:34:21;;;;;;;16.30;5.80;;;;;;;;;;5054551;28;20464;-73
2023/05/30 00:36:48;;;;;;;7.33;5.00;;;;;;;;;;5054569;28;20449;-73
2023/05/30 00:39:16;;;;;;;6.53;4.60;;;;;;;;;;5054033;28;20477;-73
2023/05/30 00:41:43;;;;;;;6.47;5.20;;;;;;;;;;5054327;28;20535;-73
2023/05/30 00:44:10;;;;;;;12.67;5.90;;;;;;;;;;5054205;28;20456;-73
2023/05/30 00:46:37;;;;;;;5.93;4.63;;;;;;;;;;5054312;28;20966;-73
2023/05/30 00:49:05;;;;;;;7.03;5.63;;;;;;;;;;5054010;28;20476;-73
2023/05/30 00:51:34;;;;;;;10.67;7.03;;;;;;;;;;5054126;28;20453;-73
2023/05/30 00:54:02;;;;;;;9.57;6.87;;;;;;;;;;5054076;28;20463;-73
2023/05/30 00:56:29;;;;;;;9.40;6.83;;;;;;;;;;5054164;28;20471;-73
2023/05/30 00:58:57;;;;;;;9.40;7.40;;;;;;;;;;5053703;28;20480;-73
2023/05/30 01:01:24;;;;;;;11.23;6.23;;;;;;;;;;5053744;28;20488;-73
2023/05/30 01:03:51;;;;;;;10.67;6.70;;;;;;;;;;5053903;28;20457;-73
2023/05/30 01:06:20;;;;;;;12.23;7.10;;;;;;;;;;5053758;28;20460;-73
2023/05/30 01:08:48;;;;;;;9.33;7.83;;;;;;;;;;5053604;28;20485;-73
2023/05/30 01:11:21;;;;;;;16.90;7.20;;;;;;;;;;5053773;28;20457;-73
2023/05/30 01:13:51;;;;;;;12.77;6.73;;;;;;;;;;5053747;28;20464;-73
2023/05/30 01:16:20;;;;;;;7.90;6.90;;;;;;;;;;5053583;28;20449;-73
2023/05/30 01:18:52;;;;;;;8.90;6.73;;;;;;;;;;5052841;28;20504;-73
2023/05/30 01:21:21;;;;;;;11.13;7.10;;;;;;;;;;5053616;28;20484;-73
2023/05/30 01:23:56;;;;;;;9.50;6.70;;;;;;;;;;5053451;28;20456;-74
2023/05/30 01:26:27;;;;;;;8.50;7.47;;;;;;;;;;5053436;28;20965;-73
2023/05/30 01:28:58;;;;;;;8.40;6.93;;;;;;;;;;5053271;28;20990;-73
2023/05/30 01:31:25;;;;;;;7.87;6.30;;;;;;;;;;5053745;28;20808;-73
2023/05/30 01:33:53;;;;;;;10.70;6.30;;;;;;;;;;5053301;28;20460;-73
2023/05/30 01:36:21;;;;;;;10.43;6.90;;;;;;;;;;5053195;28;20456;-73
2023/05/30 01:38:48;;;;;;;9.87;6.67;;;;;;;;;;5053382;28;20477;-73
2023/05/30 01:41:18;;;;;;;8.90;5.47;;;;;;;;;;5053243;28;20907;-73
2023/05/30 01:43:50;;;;;;;10.47;6.70;;;;;;;;;;5053310;28;20456;-73
2023/05/30 01:46:26;;;;;;;9.87;5.57;;;;;;;;;;5053218;28;20453;-73
2023/05/30 01:48:58;;;;;;;9.30;5.20;;;;;;;;;;5052982;28;20508;-73
2023/05/30 01:51:28;;;;;;;10.33;6.20;;;;;;;;;;5053136;28;20436;-73
2023/05/30 01:53:58;;;;;;;8.00;5.40;;;;;;;;;;5053058;28;20460;-73
2023/05/30 01:56:27;;;;;;;8.03;5.67;;;;;;;;;;5052957;28;20958;-73
2023/05/30 01:58:55;;;;;;;10.10;6.27;;;;;;;;;;5052813;28;20563;-73
2023/05/30 02:01:26;;;;;;;10.23;6.73;;;;;;;;;;5053016;28;20867;-73
2023/05/30 02:03:53;;;;;;;13.03;7.10;;;;;;;;;;5053056;28;20460;-73
2023/05/30 02:06:21;;;;;;;11.23;6.67;;;;;;;;;;5052981;28;20846;-73
2023/05/30 02:08:48;;;;;;;9.03;6.03;;;;;;;;;;5052664;28;20469;-73
2023/05/30 02:11:15;;;;;;;8.70;5.50;;;;;;;;;;5052846;28;20445;-73
2023/05/30 02:13:42;;;;;;;11.00;5.70;;;;;;;;;;5052818;28;20451;-73
2023/05/30 02:16:09;;;;;;;10.23;5.90;;;;;;;;;;5052636;28;20942;-73
2023/05/30 02:18:40;;;;;;;9.50;5.60;;;;;;;;;;5052593;28;20499;-73
2023/05/30 02:21:07;;;;;;;6.27;5.63;;;;;;;;;;5052723;28;20460;-73
2023/05/30 02:23:35;;;;;;;13.80;6.40;;;;;;;;;;5052748;28;20838;-73
2023/05/30 02:26:02;;;;;;;15.40;9.60;;;;;;;;;;5052275;28;20457;-73
2023/05/30 02:28:29;;;;;;;14.53;7.90;;;;;;;;;;5052229;28;20468;-73
2023/05/30 02:30:56;;;;;;;9.00;7.63;;;;;;;;;;5054070;28;20815;-73
2023/05/30 02:33:23;;;;;;;9.60;6.43;;;;;;;;;;5056789;28;20453;-73
2023/05/30 02:35:51;;;;;;;12.13;6.80;;;;;;;;;;5056779;28;20459;-73
2023/05/30 02:38:18;;;;;;;13.70;6.77;;;;;;;;;;5056666;28;20448;-73
2023/05/30 02:40:46;;;;;;;9.13;6.93;;;;;;;;;;5056787;28;20474;-73
2023/05/30 02:43:13;;;;;;;12.27;6.03;;;;;;;;;;5056307;28;20519;-73
2023/05/30 02:45:40;;;;;;;9.60;6.60;;;;;;;;;;5056464;28;20448;-73
2023/05/30 02:48:07;;;;;;;9.80;5.57;;;;;;;;;;5056391;28;20456;-73
2023/05/30 02:50:34;;;;;;;13.57;7.07;;;;;;;;;;5056302;28;20987;-73
2023/05/30 02:53:04;;;;;;;8.53;5.60;;;;;;;;;;5056350;28;20556;-73
2023/05/30 02:55:31;;;;;;;7.83;5.33;;;;;;;;;;5056446;28;20453;-73
2023/05/30 02:57:58;;;;;;;5.63;5.03;;;;;;;;;;5056199;28;20464;-72
2023/05/30 03:00:26;;;;;;;7.17;5.50;;;;;;;;;;5056020;28;20983;-73
2023/05/30 03:02:54;;;;;;;9.20;7.07;;;;;;;;;;5056357;28;20843;-73
2023/05/30 03:05:21;;;;;;;9.10;6.03;;;;;;;;;;5056270;28;20457;-73
2023/05/30 03:07:51;;;;;;;7.77;6.00;;;;;;;;;;5056199;28;20967;-73
2023/05/30 03:10:20;;;;;;;6.40;5.43;;;;;;;;;;5055801;28;20477;-73
2023/05/30 03:12:47;;;;;;;8.00;5.07;;;;;;;;;;5056060;28;20449;-73
2023/05/30 03:15:14;;;;;;;9.70;6.33;;;;;;;;;;5055871;28;20463;-73
2023/05/30 03:17:42;;;;;;;14.17;8.20;;;;;;;;;;5074759;28;20446;-73
2023/05/30 03:20:10;;;;;;;13.27;8.13;;;;;;;;;;5075741;28;20494;-73
2023/05/30 03:22:38;;;;;;;8.27;6.37;;;;;;;;;;5075540;28;20858;-73
2023/05/30 03:25:06;;;;;;;9.77;6.70;;;;;;;;;;5075341;28;20946;-73
2023/05/30 03:27:35;;;;;;;10.23;6.50;;;;;;;;;;5076019;28;20458;-73
2023/05/30 03:30:02;;;;;;;10.40;6.30;;;;;;;;;;5075306;28;20479;-73
2023/05/30 03:32:29;;;;;;;11.87;7.03;;;;;;;;;;5075691;28;20456;-73
2023/05/30 03:34:57;;;;;;;10.03;6.77;;;;;;;;;;5075887;28;20502;-73
2023/05/30 03:37:24;;;;;;;11.50;9.27;;;;;;;;;;5075571;28;20459;-73
2023/05/30 03:39:51;;;;;;;15.87;7.07;;;;;;;;;;5075364;28;20839;-73
2023/05/30 03:42:18;;;;;;;13.40;7.17;;;;;;;;;;5074982;28;20820;-73
2023/05/30 03:44:46;;;;;;;7.90;6.60;;;;;;;;;;5075609;28;20451;-73
2023/05/30 03:47:14;;;;;;;8.47;6.40;;;;;;;;;;5075454;28;20452;-73
2023/05/30 03:49:41;;;;;;;8.47;6.53;;;;;;;;;;5075261;28;20479;-73
2023/05/30 03:52:08;;;;;;;9.03;6.20;;;;;;;;;;5075226;28;20456;-73
2023/05/30 03:54:35;;;;;;;8.70;7.23;;;;;;;;;;5075404;28;20946;-73
2023/05/30 03:57:02;;;;;;;10.83;7.03;;;;;;;;;;5075360;28;20816;-73
2023/05/30 03:59:30;;;;;;;14.17;10.00;;;;;;;;;;5075054;28;20480;-73
2023/05/30 04:01:58;;;;;;;13.10;8.97;;;;;;;;;;5074967;28;20570;-73
2023/05/30 04:04:26;;;;;;;9.40;6.83;;;;;;;;;;5074955;28;20881;-73
2023/05/30 04:06:53;;;;;;;8.13;6.20;;;;;;;;;;5075267;28;20487;-73
2023/05/30 04:09:20;;;;;;;8.50;5.70;;;;;;;;;;5074697;28;20471;-73
2023/05/30 04:11:47;;;;;;;7.97;6.20;;;;;;;;;;5075051;28;20472;-73
2023/05/30 04:14:15;;;;;;;7.67;5.90;;;;;;;;;;5074880;28;20452;-73
2023/05/30 04:16:42;;;;;;;11.27;6.77;;;;;;;;;;5074935;28;20510;-73
2023/05/30 04:19:10;;;;;;;8.63;6.50;;;;;;;;;;5074456;28;20472;-73
2023/05/30 04:21:37;;;;;;;9.40;6.97;;;;;;;;;;5074772;28;20460;-73
2023/05/30 04:24:05;;;;;;;9.67;6.40;;;;;;;;;;5074206;28;20454;-73
2023/05/30 04:26:32;;;;;;;8.77;6.23;;;;;;;;;;5074808;28;20466;-73
2023/05/30 04:28:59;;;;;;;6.20;5.50;;;;;;;;;;5073997;28;20484;-73
2023/05/30 04:31:27;;;;;;;9.10;6.60;;;;;;;;;;5074614;28;20450;-73
2023/05/30 04:33:55;;;;;;;9.60;6.50;;;;;;;;;;5074475;28;20448;-73
2023/05/30 04:36:23;;;;;;;8.67;6.40;;;;;;;;;;5074521;28;20495;-73
2023/05/30 04:38:52;;;;;;;6.87;5.97;;;;;;;;;;5074222;28;20562;-73
2023/05/30 04:41:20;;;;;;;6.60;5.67;;;;;;;;;;5074329;28;20513;-73
2023/05/30 04:43:52;;;;;;;8.33;6.53;;;;;;;;;;5074095;28;20529;-74
2023/05/30 04:46:21;;;;;;;7.47;6.23;;;;;;;;;;5074353;28;20460;-73
2023/05/30 04:48:48;;;;;;;7.03;5.43;;;;;;;;;;5074042;28;20478;-73
2023/05/30 04:51:15;;;;;;;7.07;6.03;;;;;;;;;;5074205;28;20459;-73
2023/05/30 04:53:44;;;;;;;9.07;6.33;;;;;;;;;;5073287;28;20483;-73
2023/05/30 04:56:11;;;;;;;8.53;6.20;;;;;;;;;;5074059;28;20451;-73
2023/05/30 04:58:38;;;;;;;7.43;5.93;;;;;;;;;;5073705;28;20476;-73
2023/05/30 05:01:09;;;;;;;9.30;5.13;;;;;;;;;;5067985;28;20456;-73
2023/05/30 05:03:37;;;;;;;7.90;5.27;;;;;;;;;;5053520;28;20562;-73
2023/05/30 05:06:04;;;;;;;6.47;5.07;;;;;;;;;;5053978;28;20449;-73
2023/05/30 05:08:33;;;;;;;5.80;5.20;;;;;;;;;;5054050;28;20448;-73
2023/05/30 05:11:01;;;;;;;6.73;5.00;;;;;;;;;;5053836;28;20457;-73
2023/05/30 05:13:28;;;;;;;9.67;4.93;;;;;;;;;;5053665;28;20456;-73
2023/05/30 05:15:56;;;;;;;7.70;5.33;;;;;;;;;;5053739;28;20456;-73
2023/05/30 05:18:24;;;;;;;6.00;4.33;;;;;;;;;;5053439;28;20455;-74
2023/05/30 05:20:51;;;;;;;8.87;5.70;;;;;;;;;;5053806;28;20449;-73
2023/05/30 05:23:18;;;;;;;6.70;5.17;;;;;;;;;;5053477;28;20520;-73
2023/05/30 05:25:46;;;;;;;9.47;5.67;;;;;;;;;;5053121;28;20460;-73
2023/05/30 05:28:14;;;;;;;7.07;5.23;;;;;;;;;;5053459;28;20484;-73
2023/05/30 05:30:41;;;;;;;8.00;5.70;;;;;;;;;;5053428;28;20469;-73
2023/05/30 05:33:08;;;;;;;7.43;5.10;;;;;;;;;;5053476;28;20822;-73
2023/05/30 05:35:36;;;;;;;6.17;4.80;;;;;;;;;;5053349;28;20472;-73
2023/05/30 05:38:03;;;;;;;6.43;5.10;;;;;;;;;;5053422;28;20455;-73
2023/05/30 05:40:30;;;;;;;8.40;5.90;;;;;;;;;;5053014;28;20478;-73
2023/05/30 05:42:57;;;;;;;4.97;4.30;;;;;;;;;;5053124;28;20492;-73
2023/05/30 05:45:25;;;;;;;6.33;5.60;;;;;;;;;;5053132;28;20451;-73
2023/05/30 05:47:53;;;;;;;7.37;5.17;;;;;;;;;;5053331;28;20456;-73
2023/05/30 05:50:20;;;;;;;6.87;4.97;;;;;;;;;;5052944;28;20469;-73
2023/05/30 05:52:47;;;;;;;8.00;5.83;;;;;;;;;;5053169;28;21021;-73
2023/05/30 05:55:14;;;;;;;7.37;4.57;;;;;;;;;;5052988;28;20972;-73
2023/05/30 05:57:41;;;;;;;7.97;5.60;;;;;;;;;;5053259;28;20815;-73
2023/05/30 06:00:09;;;;;;;5.50;4.50;;;;;;;;;;5052718;28;20484;-73
2023/05/30 06:02:38;;;;;;;7.67;5.20;;;;;;;;;;5054503;28;20550;-73
2023/05/30 06:05:06;;;;;;;7.67;5.17;;;;;;;;;;5052354;28;20455;-73
2023/05/30 06:07:33;;;;;;;11.93;5.00;;;;;;;;;;5052929;28;20457;-73
2023/05/30 06:10:00;;;;;;;5.47;4.07;;;;;;;;;;5052345;28;20472;-73
2023/05/30 06:12:27;;;;;;;4.47;3.83;;;;;;;;;;5052695;28;20456;-73
2023/05/30 06:14:54;;;;;;;6.23;4.40;;;;;;;;;;5052404;28;20476;-74
2023/05/30 06:17:21;;;;;;;4.93;4.13;;;;;;;;;;5052690;28;20449;-73
2023/05/30 06:19:52;;;;;;;5.10;3.57;;;;;;;;;;5052171;28;20477;-73
2023/05/30 06:22:19;;;;;;;7.03;3.87;;;;;;;;;;5052422;28;20455;-73
2023/05/30 06:24:46;;;;;;;6.43;3.90;;;;;;;;;;5052029;28;20464;-73
2023/05/30 06:27:14;;;;;;;5.53;4.03;;;;;;;;;;5052472;28;20456;-73
2023/05/30 06:29:42;;;;;;;5.37;4.20;;;;;;;;;;5052242;28;20512;-74
2023/05/30 06:32:09;;;;;;;4.67;4.03;;;;;;;;;;5052296;28;20449;-74
2023/05/30 06:34:37;;;;;;;5.17;4.03;;;;;;;;;;5052582;28;20507;-74
2023/05/30 06:37:05;;;;;;;4.50;3.93;;;;;;;;;;5052626;28;20549;-73
2023/05/30 06:39:33;;;;;;;4.83;3.70;;;;;;;;;;5051920;28;21005;-74
2023/05/30 06:42:00;;;;;;;4.13;3.43;;;;;;;;;;5052702;28;20464;-74
2023/05/30 06:44:28;;;;;;;4.93;4.30;;;;;;;;;;5052678;28;20484;-74
2023/05/30 06:46:55;;;;;;;7.00;4.20;;;;;;;;;;5052488;28;20521;-74
2023/05/30 06:49:22;;;;;;;7.43;4.23;;;;;;;;;;5052044;28;20480;-74
2023/05/30 06:51:49;;;;;;;5.33;4.00;;;;;;;;;;5052607;28;20453;-74
2023/05/30 06:54:18;;;;;;;5.07;3.70;;;;;;;;;;5052108;28;20461;-74
2023/05/30 06:56:45;;;;;;;4.20;3.57;;;;;;;;;;5052577;28;20969;-74
2023/05/30 06:59:12;;;;;;;4.83;3.50;;;;;;;;;;5051871;28;20481;-74
2023/05/30 07:01:39;;;;;;;4.90;3.67;;;;;;;;;;5070573;28;20451;-73
2023/05/30 07:04:06;;;;;;;4.53;4.10;;;;;;;;;;5070697;28;20491;-74
2023/05/30 07:06:33;;;;;;;5.00;3.83;;;;;;;;;;5070258;28;20646;-74
2023/05/30 07:09:00;;;;;;;7.30;4.80;;;;;;;;;;5070571;28;20884;-74
2023/05/30 07:11:29;;;;;;;4.60;3.63;;;;;;;;;;5070997;28;20459;-74
2023/05/30 07:13:56;;;;;;;6.30;4.17;;;;;;;;;;5070708;28;20452;-74
2023/05/30 07:16:23;;;;;;;4.67;3.90;;;;;;;;;;5071234;28;20458;-74
2023/05/30 07:18:50;;;;;;;4.97;4.47;;;;;;;;;;5074558;28;20474;-74
2023/05/30 07:21:17;;;;;;;7.03;4.37;;;;;;;;;;5074237;28;20505;-74
2023/05/30 07:23:45;;;;;;;5.37;4.87;;;;;;;;;;5073902;28;20495;-74
2023/05/30 07:26:12;;;;;;;5.10;3.83;;;;;;;;;;5074488;28;20542;-74
2023/05/30 07:28:40;;;;;;;8.07;4.60;;;;;;;;;;5074246;28;20993;-74
2023/05/30 07:31:07;;;;;;;10.97;4.73;;;;;;;;;;5073865;28;20459;-74
2023/05/30 07:33:35;;;;;;;5.30;3.90;;;;;;;;;;5073854;28;20522;-74
2023/05/30 07:36:02;;;;;;;5.53;3.87;;;;;;;;;;5074247;28;20452;-74
2023/05/30 07:38:29;;;;;;;7.20;3.60;;;;;;;;;;5073866;28;20452;-74
2023/05/30 07:40:56;;;;;;;6.80;3.63;;;;;;;;;;5074231;28;20478;-74
2023/05/30 07:43:23;;;;;;;5.97;4.30;;;;;;;;;;5073887;28;20501;-74
2023/05/30 07:45:51;;;;;;;4.93;4.17;;;;;;;;;;5073974;28;20462;-74
2023/05/30 07:48:18;;;;;;;4.90;3.90;;;;;;;;;;5073747;28;20448;-74
2023/05/30 07:50:45;;;;;;;7.33;3.63;;;;;;;;;;5074816;28;20809;-74
2023/05/30 07:53:13;;;;;;;8.20;3.97;;;;;;;;;;5075039;28;20455;-74
2023/05/30 07:55:40;;;;;;;5.30;3.80;;;;;;;;;;5075273;28;20447;-74
2023/05/30 07:58:07;;;;;;;5.80;3.80;;;;;;;;;;5075184;28;20455;-74
2023/05/30 08:00:34;;;;;;;6.63;4.20;;;;;;;;;;5074687;28;20498;-74
2023/05/30 08:03:02;;;;;;;6.43;4.10;;;;;;;;;;5075229;28;20456;-74
2023/05/30 08:05:30;;;;;;;4.63;3.47;;;;;;;;;;5074735;28;20455;-74
2023/05/30 08:07:57;;;;;;;6.47;4.10;;;;;;;;;;5075106;28;20479;-74
2023/05/30 08:10:24;;;;;;;5.33;4.17;;;;;;;;;;5074686;28;20479;-73
2023/05/30 08:12:52;;;;;;;5.83;4.30;;;;;;;;;;5074925;28;20455;-73
2023/05/30 08:15:19;;;;;;;5.63;3.60;;;;;;;;;;5074925;28;20467;-73
2023/05/30 08:17:46;;;;;;;7.13;3.80;;;;;;;;;;5074971;28;20456;-73
2023/05/30 08:20:16;;;;;;;5.63;4.00;;;;;;;;;;5074864;28;20468;-74
2023/05/30 08:22:43;;;;;;;6.30;4.20;;;;;;;;;;5063665;28;20499;-74
2023/05/30 08:25:10;;;;;;;8.40;3.77;;;;;;;;;;5054192;28;21024;-74
2023/05/30 08:27:38;;;;;;;4.07;3.50;;;;;;;;;;5054888;28;20492;-74
2023/05/30 08:30:07;;;;;;;4.80;3.00;;;;;;;;;;5055259;28;20556;-74
2023/05/30 08:32:34;;;;;;;4.30;3.87;;;;;;;;;;5055532;28;20522;-74
2023/05/30 08:35:01;;;;;;;4.47;3.50;;;;;;;;;;5054603;28;20449;-74
2023/05/30 08:37:30;;;;;;;5.30;3.30;;;;;;;;;;5054766;28;20798;-74
2023/05/30 08:39:57;;;;;;;5.00;3.70;;;;;;;;;;5054237;28;20491;-74
2023/05/30 08:42:25;;;;;;;9.37;7.40;;;;;;;;;;5054595;28;20466;-74
2023/05/30 08:44:52;;;;;;;3.63;3.30;;;;;;;;;;5054401;28;20484;-74
2023/05/30 08:47:21;;;;;;;8.47;3.60;;;;;;;;;;5054360;28;20530;-74
2023/05/30 08:49:49;;;;;;;7.93;3.40;;;;;;;;;;5054312;28;20468;-74
2023/05/30 08:52:17;;;;;;;7.33;4.27;;;;;;;;;;5054230;28;20832;-74
2023/05/30 08:54:50;;;;;;;9.60;4.00;;;;;;;;;;5054226;28;20456;-74
2023/05/30 08:57:22;;;;;;;4.33;3.70;;;;;;;;;;5054216;28;20461;-74
2023/05/30 08:59:50;;;;;;;6.00;4.50;;;;;;;;;;5054090;28;20469;-74
2023/05/30 09:02:19;;;;;;;5.67;4.00;;;;;;;;;;5054015;28;20452;-74
2023/05/30 09:04:47;;;;;;;4.03;3.60;;;;;;;;;;5054221;28;20488;-74
2023/05/30 09:07:16;;;;;;;7.70;3.07;;;;;;;;;;5053984;28;20451;-74
2023/05/30 09:09:44;;;;;;;6.30;4.00;;;;;;;;;;5053863;28;20508;-74
2023/05/30 09:12:13;;;;;;;5.03;3.50;;;;;;;;;;5053745;28;20465;-74
2023/05/30 09:14:40;;;;;;;4.57;4.13;;;;;;;;;;5053800;28;20868;-74
2023/05/30 09:17:07;;;;;;;7.47;4.80;;;;;;;;;;5053654;28;20452;-74
2023/05/30 09:19:35;;;;;;;10.13;4.50;;;;;;;;;;5053639;28;20900;-74
2023/05/30 09:22:02;;;;;;;4.40;3.50;;;;;;;;;;5053685;28;20452;-74
2023/05/30 09:24:44;;;;;;;5.60;4.10;;;;;;;;;;5053118;28;21038;-74
2023/05/30 09:27:13;;;;;;;9.97;4.13;;;;;;;;;;5053318;28;20452;-74
2023/05/30 09:29:44;;;;;;;8.00;4.33;;;;;;;;;;5053157;28;20495;-74
2023/05/30 09:32:11;;;;;;;4.40;3.50;;;;;;;;;;5053503;28;20449;-74
2023/05/30 09:34:40;;;;;;;8.97;3.90;;;;;;;;;;5053405;28;20453;-74
2023/05/30 09:37:08;;;;;;;4.47;3.90;;;;;;;;;;5053380;28;20447;-74
2023/05/30 09:39:35;;;;;;;6.30;4.20;;;;;;;;;;5052780;28;20473;-74
2023/05/30 09:42:07;;;;;;;5.27;4.33;;;;;;;;;;5053277;28;20444;-74
2023/05/30 09:44:36;;;;;;;6.23;4.40;;;;;;;;;;5053226;28;20554;-74
2023/05/30 09:47:03;;;;;;;5.37;3.90;;;;;;;;;;5053210;28;20947;-74
2023/05/30 09:49:30;;;;;;;6.37;4.90;;;;;;;;;;5069817;28;20483;-74
2023/05/30 09:51:57;;;;;;;7.60;4.67;;;;;;;;;;5073031;28;20465;-74
2023/05/30 09:54:24;;;;;;;7.13;3.67;;;;;;;;;;5072879;28;20452;-74
2023/05/30 09:56:54;;;;;;;8.30;3.80;;;;;;;;;;5072992;28;20460;-74
2023/05/30 09:59:23;;;;;;;21.20;12.03;;;;;;;;;;5072616;28;20471;-74
2023/05/30 10:01:52;;;;;;;6.73;4.40;;;;;;;;;;5073056;28;20451;-74
2023/05/30 10:04:20;;;;;;;9.70;5.30;;;;;;;;;;5070899;28;20883;-74
2023/05/30 10:06:47;;;;;;;5.00;4.20;;;;;;;;;;5052576;28;20487;-74
2023/05/30 10:09:15;;;;;;;9.90;5.20;;;;;;;;;;5052390;28;20473;-74
2023/05/30 10:11:44;;;;;;;5.07;3.60;;;;;;;;;;5052699;28;20464;-74
2023/05/30 10:14:11;;;;;;;5.33;3.60;;;;;;;;;;5052504;28;20455;-74
2023/05/30 10:16:44;;;;;;;6.70;3.90;;;;;;;;;;5052765;28;20916;-74
2023/05/30 10:19:14;;;;;;;6.23;4.53;;;;;;;;;;5052353;28;20469;-74
2023/05/30 10:21:41;;;;;;;6.47;4.57;;;;;;;;;;5052659;28;20551;-74
2023/05/30 10:24:10;;;;;;;5.30;2.73;;;;;;;;;;5051942;28;20484;-74
2023/05/30 10:26:39;;;;;;;4.17;3.03;;;;;;;;;;5052390;28;20457;-74
2023/05/30 10:29:07;;;;;;;5.50;4.10;;;;;;;;;;5052155;28;20502;-74
2023/05/30 10:31:36;;;;;;;4.43;3.40;;;;;;;;;;5052490;28;20483;-74
2023/05/30 10:34:06;;;;;;;5.53;3.70;;;;;;;;;;5052254;28;20460;-74
2023/05/30 10:36:35;;;;;;;5.20;3.70;;;;;;;;;;5052639;28;20563;-74
2023/05/30 10:39:09;;;;;;;5.00;3.20;;;;;;;;;;5052274;28;20476;-74
2023/05/30 10:41:39;;;;;;;3.83;3.47;;;;;;;;;;5052705;28;20469;-74
2023/05/30 10:44:22;;;;;;;3.87;3.50;;;;;;;;;;5052446;28;20929;-74
2023/05/30 10:46:57;;;;;;;7.93;3.73;;;;;;;;;;5052718;28;20457;-74
2023/05/30 10:49:26;;;;;;;4.43;3.50;;;;;;;;;;5052498;28;20479;-74
2023/05/30 10:52:02;;;;;;;12.60;3.60;;;;;;;;;;5053868;28;20457;-74
2023/05/30 10:54:31;;;;;;;6.20;4.07;;;;;;;;;;5056569;28;20441;-74
2023/05/30 10:56:58;;;;;;;4.20;3.40;;;;;;;;;;5056261;28;20456;-74
2023/05/30 10:59:26;;;;;;;5.80;3.07;;;;;;;;;;5055909;28;20500;-74
2023/05/30 11:02:00;;;;;;;4.27;3.87;;;;;;;;;;5056321;28;20459;-74
2023/05/30 11:04:32;;;;;;;19.57;4.10;;;;;;;;;;5056113;28;20487;-74
2023/05/30 11:06:59;;;;;;;7.60;3.50;;;;;;;;;;5056241;28;20955;-74
2023/05/30 11:09:28;;;;;;;5.07;3.37;;;;;;;;;;5056054;28;20542;-74
2023/05/30 11:11:58;;;;;;;7.20;4.20;;;;;;;;;;5056100;28;20445;-74
2023/05/30 11:14:26;;;;;;;9.03;3.80;;;;;;;;;;5056028;28;20456;-74
2023/05/30 11:16:57;;;;;;;4.33;3.00;;;;;;;;;;5055985;28;20452;-74
2023/05/30 11:19:26;;;;;;;4.73;3.70;;;;;;;;;;5055913;28;20473;-74
2023/05/30 11:21:57;;;;;;;8.13;3.17;;;;;;;;;;5055877;28;20455;-74
2023/05/30 11:24:24;;;;;;;4.00;3.30;;;;;;;;;;5055260;28;20917;-74
2023/05/30 11:27:00;;;;;;;4.57;3.07;;;;;;;;;;5055882;28;20487;-74
2023/05/30 11:29:35;;;;;;;6.87;3.83;;;;;;;;;;5055517;28;20899;-74
2023/05/30 11:32:02;;;;;;;3.60;2.53;;;;;;;;;;5055797;28;20533;-74
2023/05/30 11:34:29;;;;;;;3.80;3.40;;;;;;;;;;5055586;28;20455;-74
2023/05/30 11:36:57;;;;;;;3.80;2.97;;;;;;;;;;5055816;28;20531;-74
2023/05/30 11:39:25;;;;;;;6.70;4.27;;;;;;;;;;5055107;28;20497;-74
2023/05/30 11:41:52;;;;;;;6.10;3.67;;;;;;;;;;5055626;28;20452;-74
2023/05/30 11:44:21;;;;;;;4.90;3.33;;;;;;;;;;5055580;28;20494;-74
2023/05/30 11:47:03;;;;;;;6.70;3.50;;;;;;;;;;5055583;28;20892;-74
2023/05/30 11:49:30;;;;;;;8.17;3.33;;;;;;;;;;5053131;28;20647;-76
2023/05/30 11:51:58;;;;;;;4.80;3.00;;;;;;;;;;5055373;28;20452;-76
2023/05/30 11:54:25;;;;;;;4.20;3.80;;;;;;;;;;5055447;28;20828;-77
2023/05/30 11:56:53;;;;;;;5.30;3.23;;;;;;;;;;5055257;28;20457;-76
2023/05/30 11:59:22;;;;;;;7.10;3.10;;;;;;;;;;5054952;28;20904;-76
2023/05/30 12:01:57;;;;;;;4.10;3.00;;;;;;;;;;5062995;28;20457;-79
2023/05/30 12:04:25;;;;;;;4.30;3.80;;;;;;;;;;5081376;28;20578;-79
2023/05/30 12:06:52;;;;;;;3.80;3.10;;;;;;;;;;5081201;28;20491;-79
2023/05/30 12:09:20;;;;;;;4.20;3.20;;;;;;;;;;5080657;28;20459;-79
2023/05/30 12:11:52;;;;;;;4.20;3.57;;;;;;;;;;5082631;28;20458;-79
2023/05/30 12:14:21;;;;;;;4.73;3.40;;;;;;;;;;5082714;28;20456;-79
2023/05/30 12:16:56;;;;;;;5.33;3.40;;;;;;;;;;5081678;28;20448;-79
2023/05/30 12:19:27;;;;;;;5.83;4.10;;;;;;;;;;5082819;28;20470;-79
2023/05/30 12:21:55;;;;;;;6.10;4.57;;;;;;;;;;5081895;28;20818;-79
2023/05/30 12:24:24;;;;;;;7.53;3.33;;;;;;;;;;5081290;28;20448;-79
2023/05/30 12:26:54;;;;;;;5.80;3.30;;;;;;;;;;5081494;28;20451;-79
2023/05/30 12:29:23;;;;;;;5.20;3.30;;;;;;;;;;5083345;28;20484;-79
2023/05/30 12:31:50;;;;;;;4.23;3.67;;;;;;;;;;5083407;28;20846;-79
2023/05/30 12:34:19;;;;;;;5.90;3.50;;;;;;;;;;5082664;28;20459;-79
2023/05/30 12:36:47;;;;;;;6.10;3.67;;;;;;;;;;5082334;28;20470;-79
2023/05/30 12:39:15;;;;;;;6.60;3.47;;;;;;;;;;5080767;28;20468;-79
2023/05/30 12:41:42;;;;;;;5.33;3.73;;;;;;;;;;5083037;28;20451;-79
2023/05/30 12:44:09;;;;;;;4.20;3.80;;;;;;;;;;5080818;28;20462;-79
2023/05/30 12:46:38;;;;;;;4.57;3.20;;;;;;;;;;5082251;28;20841;-79
2023/05/30 12:49:06;;;;;;;6.90;3.67;;;;;;;;;;5080261;28;20523;-79
2023/05/30 12:51:35;;;;;;;5.37;3.80;;;;;;;;;;5080529;28;20547;-79
2023/05/30 12:54:02;;;;;;;5.60;3.80;;;;;;;;;;5081144;28;20855;-78
2023/05/30 12:56:31;;;;;;;9.63;4.30;;;;;;;;;;5080658;28;20447;-79
2023/05/30 12:58:58;;;;;;;5.40;4.17;;;;;;;;;;5080638;28;20475;-79
2023/05/30 13:01:25;;;;;;;6.10;3.70;;;;;;;;;;5074758;28;20451;-79
2023/05/30 13:03:52;;;;;;;5.07;4.40;;;;;;;;;;5065797;28;20456;-79
2023/05/30 13:06:20;;;;;;;4.10;3.30;;;;;;;;;;5066568;28;20863;-79
2023/05/30 13:08:48;;;;;;;3.57;3.03;;;;;;;;;;5066154;28;20472;-79
2023/05/30 13:11:15;;;;;;;3.57;2.90;;;;;;;;;;5066588;28;20445;-79
2023/05/30 13:13:42;;;;;;;6.00;3.90;;;;;;;;;;5065222;28;20457;-79
2023/05/30 13:16:09;;;;;;;6.37;3.73;;;;;;;;;;5064756;28;20453;-79
2023/05/30 13:18:36;;;;;;;5.93;3.50;;;;;;;;;;5064045;28;20448;-78
2023/05/30 13:21:04;;;;;;;7.93;3.90;;;;;;;;;;5063891;28;20449;-79
2023/05/30 13:23:31;;;;;;;4.40;3.70;;;;;;;;;;5065555;28;20958;-79
2023/05/30 13:25:59;;;;;;;7.37;4.27;;;;;;;;;;5063767;28;20492;-79
2023/05/30 13:28:28;;;;;;;5.23;3.10;;;;;;;;;;5063927;28;20959;-79
2023/05/30 13:30:55;;;;;;;6.77;4.07;;;;;;;;;;5063095;28;20459;-79
2023/05/30 13:33:24;;;;;;;7.77;4.00;;;;;;;;;;5062853;28;20989;-78
2023/05/30 13:35:51;;;;;;;3.90;3.30;;;;;;;;;;5063831;28;20455;-79
2023/05/30 13:38:18;;;;;;;4.90;4.37;;;;;;;;;;5064099;28;20461;-78
2023/05/30 13:40:46;;;;;;;5.37;4.27;;;;;;;;;;5064227;28;20470;-79
2023/05/30 13:43:14;;;;;;;11.40;4.20;;;;;;;;;;5064463;28;20463;-79
2023/05/30 13:45:42;;;;;;;7.83;3.60;;;;;;;;;;5064344;28;20495;-78
2023/05/30 13:48:09;;;;;;;5.63;4.07;;;;;;;;;;5063520;28;20448;-79
2023/05/30 13:50:37;;;;;;;8.10;3.77;;;;;;;;;;5062707;28;20483;-79
2023/05/30 13:53:04;;;;;;;18.40;4.60;;;;;;;;;;5063142;28;20498;-79
2023/05/30 13:55:33;;;;;;;6.03;4.90;;;;;;;;;;5062339;28;20543;-79
2023/05/30 13:58:00;;;;;;;8.57;3.87;;;;;;;;;;5062473;28;20453;-79
2023/05/30 14:00:29;;;;;;;5.80;3.80;;;;;;;;;;5062145;28;20530;-79
2023/05/30 14:02:56;;;;;;;5.00;3.73;;;;;;;;;;5062865;28;20448;-78
2023/05/30 14:05:24;;;;;;;5.20;3.80;;;;;;;;;;5063728;28;20481;-79
2023/05/30 14:07:51;;;;;;;4.40;4.00;;;;;;;;;;5064365;28;20483;-79
2023/05/30 14:10:18;;;;;;;7.30;4.20;;;;;;;;;;5063390;28;20477;-79
2023/05/30 14:12:46;;;;;;;5.97;3.73;;;;;;;;;;5064846;28;20928;-78
2023/05/30 14:15:13;;;;;;;6.40;4.87;;;;;;;;;;5063993;28;20478;-79
2023/05/30 14:17:41;;;;;;;5.80;3.80;;;;;;;;;;5064200;28;20449;-79
2023/05/30 14:20:10;;;;;;;6.90;3.90;;;;;;;;;;5063874;28;20456;-79
2023/05/30 14:22:37;;;;;;;4.57;3.70;;;;;;;;;;5065254;28;20480;-79
2023/05/30 14:25:04;;;;;;;4.73;3.60;;;;;;;;;;5064703;28;20448;-78
2023/05/30 14:27:31;;;;;;;9.33;4.27;;;;;;;;;;5070919;28;20866;-79
2023/05/30 14:29:59;;;;;;;8.13;5.07;;;;;;;;;;5071956;28;20480;-78
2023/05/30 14:32:26;;;;;;;6.93;3.53;;;;;;;;;;5071830;28;20838;-79
2023/05/30 14:34:54;;;;;;;12.57;3.87;;;;;;;;;;5070817;28;20437;-79
2023/05/30 14:37:21;;;;;;;7.80;3.53;;;;;;;;;;5071422;28;20451;-79
2023/05/30 14:39:48;;;;;;;7.30;3.70;;;;;;;;;;5070798;28;20838;-78
2023/05/30 14:42:16;;;;;;;5.40;3.87;;;;;;;;;;5071076;28;20455;-79
2023/05/30 14:44:43;;;;;;;6.63;3.80;;;;;;;;;;5070906;28;20471;-79
2023/05/30 14:47:10;;;;;;;5.63;4.10;;;;;;;;;;5070158;28;20484;-79